sensor_id;sensor_type;location;lat;lon;timestamp;pressure;altitude;pressure_sealevel;temperature;humidity
28000;BME280;15328;50.860;10.562;2024-02-26T00:03:12;94985.09;;;3.30;61.00
28000;BME280;15328;50.860;10.562;2024-02-26T00:08:13;94969.13;;;3.25;61.41
28000;BME280;15328;50.860;10.562;2024-02-26T00:13:13;94955.97;;;3.31;60.65
28000;BME280;15328;50.860;10.562;2024-02-26T00:18:14;94948.69;;;3.33;60.61
28000;BME280;15328;50.860;10.562;2024-02-26T00:23:15;94951.09;;;3.28;60.75
28000;BME280;15328;50.860;10.562;2024-02-26T00:28:15;94944.88;;;3.23;60.95
28000;BME280;15328;50.860;10.562;2024-02-26T00:33:16;94947.28;;;3.24;61.60
28000;BME280;15328;50.860;10.562;2024-02-26T00:38:17;94944.44;;;3.26;61.99
28000;BME280;15328;50.860;10.562;2024-02-26T00:43:17;94935.16;;;3.30;61.23
28000;BME280;15328;50.860;10.562;2024-02-26T00:48:18;94931.50;;;3.31;60.88
28000;BME280;15328;50.860;10.562;2024-02-26T00:53:18;94942.84;;;3.31;60.77
28000;BME280;15328;50.860;10.562;2024-02-26T00:58:18;94927.66;;;3.27;61.04
28000;BME280;15328;50.860;10.562;2024-02-26T01:03:19;94928.06;;;3.30;61.72
28000;BME280;15328;50.860;10.562;2024-02-26T01:08:19;94930.50;;;3.25;61.23
28000;BME280;15328;50.860;10.562;2024-02-26T01:13:20;94919.38;;;3.23;60.75
28000;BME280;15328;50.860;10.562;2024-02-26T01:18:20;94926.09;;;3.19;61.21
28000;BME280;15328;50.860;10.562;2024-02-26T01:23:20;94932.16;;;3.20;60.88
28000;BME280;15328;50.860;10.562;2024-02-26T01:28:21;94930.16;;;3.15;60.74
28000;BME280;15328;50.860;10.562;2024-02-26T01:33:21;94930.81;;;3.04;61.19
28000;BME280;15328;50.860;10.562;2024-02-26T01:38:21;94930.00;;;2.97;60.83
28000;BME280;15328;50.860;10.562;2024-02-26T01:43:22;94933.03;;;2.94;60.51
28000;BME280;15328;50.860;10.562;2024-02-26T01:48:22;94935.28;;;2.90;61.02
28000;BME280;15328;50.860;10.562;2024-02-26T01:53:23;94931.03;;;2.89;60.95
28000;BME280;15328;50.860;10.562;2024-02-26T01:58:24;94926.78;;;2.88;61.68
28000;BME280;15328;50.860;10.562;2024-02-26T02:03:25;94936.28;;;2.89;61.99
28000;BME280;15328;50.860;10.562;2024-02-26T02:08:25;94925.41;;;2.86;62.19
28000;BME280;15328;50.860;10.562;2024-02-26T02:13:27;94928.81;;;2.86;61.63
28000;BME280;15328;50.860;10.562;2024-02-26T02:18:27;94920.94;;;2.86;61.83
28000;BME280;15328;50.860;10.562;2024-02-26T02:23:28;94920.75;;;2.81;61.52
28000;BME280;15328;50.860;10.562;2024-02-26T02:28:28;94919.75;;;2.82;62.34
28000;BME280;15328;50.860;10.562;2024-02-26T02:33:28;94925.81;;;2.83;61.84
28000;BME280;15328;50.860;10.562;2024-02-26T02:38:29;94932.88;;;2.82;61.87
28000;BME280;15328;50.860;10.562;2024-02-26T02:43:30;94932.88;;;2.82;61.70
28000;BME280;15328;50.860;10.562;2024-02-26T02:48:30;94937.31;;;2.82;62.34
28000;BME280;15328;50.860;10.562;2024-02-26T02:53:31;94941.97;;;2.86;62.67
28000;BME280;15328;50.860;10.562;2024-02-26T02:58:31;94938.31;;;2.87;62.03
28000;BME280;15328;50.860;10.562;2024-02-26T03:03:32;94945.56;;;2.92;62.34
28000;BME280;15328;50.860;10.562;2024-02-26T03:08:32;94940.31;;;2.92;62.32
28000;BME280;15328;50.860;10.562;2024-02-26T03:13:33;94940.72;;;2.95;62.64
28000;BME280;15328;50.860;10.562;2024-02-26T03:18:33;94941.31;;;2.97;62.00
28000;BME280;15328;50.860;10.562;2024-02-26T03:23:33;94928.56;;;3.01;62.51
28000;BME280;15328;50.860;10.562;2024-02-26T03:28:36;94934.84;;;3.00;61.74
28000;BME280;15328;50.860;10.562;2024-02-26T03:33:37;94935.03;;;2.98;61.91
28000;BME280;15328;50.860;10.562;2024-02-26T03:38:37;94942.13;;;2.98;62.04
28000;BME280;15328;50.860;10.562;2024-02-26T03:43:37;94932.84;;;2.95;61.79
28000;BME280;15328;50.860;10.562;2024-02-26T03:48:38;94939.50;;;2.91;62.80
28000;BME280;15328;50.860;10.562;2024-02-26T03:53:38;94938.50;;;2.92;62.32
28000;BME280;15328;50.860;10.562;2024-02-26T03:58:38;94945.97;;;2.95;62.52
28000;BME280;15328;50.860;10.562;2024-02-26T04:03:39;94942.75;;;2.93;62.75
28000;BME280;15328;50.860;10.562;2024-02-26T04:08:40;94934.06;;;2.93;62.50
28000;BME280;15328;50.860;10.562;2024-02-26T04:13:40;94935.47;;;2.95;62.89
28000;BME280;15328;50.860;10.562;2024-02-26T04:18:40;94943.94;;;2.97;63.24
28000;BME280;15328;50.860;10.562;2024-02-26T04:23:40;94940.28;;;2.98;62.99
28000;BME280;15328;50.860;10.562;2024-02-26T04:34:37;94939.91;;;2.95;63.00
28000;BME280;15328;50.860;10.562;2024-02-26T04:39:37;94952.84;;;2.96;62.93
28000;BME280;15328;50.860;10.562;2024-02-26T04:44:37;94951.22;;;3.02;63.31
28000;BME280;15328;50.860;10.562;2024-02-26T04:49:38;94958.47;;;3.06;63.29
28000;BME280;15328;50.860;10.562;2024-02-26T04:54:38;94956.44;;;3.08;62.77
28000;BME280;15328;50.860;10.562;2024-02-26T04:59:38;94955.03;;;3.13;62.98
28000;BME280;15328;50.860;10.562;2024-02-26T05:04:40;94958.03;;;3.16;63.10
28000;BME280;15328;50.860;10.562;2024-02-26T05:09:41;94962.66;;;3.21;63.29
28000;BME280;15328;50.860;10.562;2024-02-26T05:14:42;94963.44;;;3.28;63.28
28000;BME280;15328;50.860;10.562;2024-02-26T05:19:42;94961.63;;;3.35;63.54
28000;BME280;15328;50.860;10.562;2024-02-26T05:24:43;94962.81;;;3.39;63.00
28000;BME280;15328;50.860;10.562;2024-02-26T05:29:43;94954.50;;;3.42;63.21
28000;BME280;15328;50.860;10.562;2024-02-26T05:34:43;94955.09;;;3.44;63.57
28000;BME280;15328;50.860;10.562;2024-02-26T05:39:44;94954.88;;;3.46;63.39
28000;BME280;15328;50.860;10.562;2024-02-26T05:44:44;94957.47;;;3.52;63.17
28000;BME280;15328;50.860;10.562;2024-02-26T05:49:44;94960.72;;;3.54;63.20
28000;BME280;15328;50.860;10.562;2024-02-26T05:54:45;94963.97;;;3.56;62.69
28000;BME280;15328;50.860;10.562;2024-02-26T05:59:45;94975.69;;;3.54;63.08
28000;BME280;15328;50.860;10.562;2024-02-26T06:04:45;94975.88;;;3.52;63.06
28000;BME280;15328;50.860;10.562;2024-02-26T06:09:47;94988.44;;;3.50;63.29
28000;BME280;15328;50.860;10.562;2024-02-26T06:14:48;94993.88;;;3.55;62.75
28000;BME280;15328;50.860;10.562;2024-02-26T06:19:49;95003.78;;;3.53;63.27
28000;BME280;15328;50.860;10.562;2024-02-26T06:24:49;95003.19;;;3.58;63.05
28000;BME280;15328;50.860;10.562;2024-02-26T06:29:49;95010.88;;;3.59;63.12
28000;BME280;15328;50.860;10.562;2024-02-26T06:34:50;95014.50;;;3.65;62.78
28000;BME280;15328;50.860;10.562;2024-02-26T06:39:50;95010.84;;;3.66;63.17
28000;BME280;15328;50.860;10.562;2024-02-26T06:44:52;95017.06;;;3.71;63.23
28000;BME280;15328;50.860;10.562;2024-02-26T06:49:52;95031.41;;;3.76;63.19
28000;BME280;15328;50.860;10.562;2024-02-26T06:54:52;95034.66;;;3.84;63.32
28000;BME280;15328;50.860;10.562;2024-02-26T06:59:53;95041.91;;;3.89;63.58
28000;BME280;15328;50.860;10.562;2024-02-26T07:04:53;95040.03;;;3.96;63.54
28000;BME280;15328;50.860;10.562;2024-02-26T07:09:54;95053.53;;;4.13;62.75
28000;BME280;15328;50.860;10.562;2024-02-26T07:14:55;95057.50;;;4.22;62.86
28000;BME280;15328;50.860;10.562;2024-02-26T07:19:55;95050.03;;;4.19;62.50
28000;BME280;15328;50.860;10.562;2024-02-26T07:24:55;95052.16;;;4.35;62.83
28000;BME280;15328;50.860;10.562;2024-02-26T07:29:56;95055.38;;;4.44;62.39
28000;BME280;15328;50.860;10.562;2024-02-26T07:34:56;95058.38;;;4.47;62.60
28000;BME280;15328;50.860;10.562;2024-02-26T07:39:56;95066.81;;;4.56;62.48
28000;BME280;15328;50.860;10.562;2024-02-26T07:44:57;95068.16;;;4.65;62.13
28000;BME280;15328;50.860;10.562;2024-02-26T07:49:57;95074.59;;;4.76;61.02
28000;BME280;15328;50.860;10.562;2024-02-26T07:54:57;95068.56;;;4.69;62.18
28000;BME280;15328;50.860;10.562;2024-02-26T07:59:58;95073.34;;;4.78;62.02
28000;BME280;15328;50.860;10.562;2024-02-26T08:04:58;95076.47;;;4.93;62.38
28000;BME280;15328;50.860;10.562;2024-02-26T08:09:59;95082.38;;;5.14;62.88
28000;BME280;15328;50.860;10.562;2024-02-26T08:14:59;95085.63;;;5.34;62.67
28000;BME280;15328;50.860;10.562;2024-02-26T08:20:00;95087.50;;;5.52;62.29
28000;BME280;15328;50.860;10.562;2024-02-26T08:25:00;95088.88;;;5.73;61.29
28000;BME280;15328;50.860;10.562;2024-02-26T08:30:05;95091.16;;;5.69;61.67
28000;BME280;15328;50.860;10.562;2024-02-26T08:35:06;95092.50;;;5.78;61.49
28000;BME280;15328;50.860;10.562;2024-02-26T08:40:07;95096.94;;;6.03;61.70
28000;BME280;15328;50.860;10.562;2024-02-26T08:45:08;95089.41;;;6.18;60.93
28000;BME280;15328;50.860;10.562;2024-02-26T08:50:08;95092.47;;;6.33;61.18
28000;BME280;15328;50.860;10.562;2024-02-26T08:55:10;95089.31;;;6.55;60.76
28000;BME280;15328;50.860;10.562;2024-02-26T09:00:10;95090.19;;;6.78;61.00
28000;BME280;15328;50.860;10.562;2024-02-26T09:05:11;95083.47;;;7.06;60.07
28000;BME280;15328;50.860;10.562;2024-02-26T09:10:12;95091.66;;;7.28;59.21
28000;BME280;15328;50.860;10.562;2024-02-26T09:15:12;95087.06;;;7.47;58.79
28000;BME280;15328;50.860;10.562;2024-02-26T09:20:13;95081.19;;;7.56;57.70
28000;BME280;15328;50.860;10.562;2024-02-26T09:25:15;95076.22;;;7.60;56.66
28000;BME280;15328;50.860;10.562;2024-02-26T09:30:15;95081.31;;;7.50;56.63
28000;BME280;15328;50.860;10.562;2024-02-26T09:35:16;95087.75;;;7.54;55.86
28000;BME280;15328;50.860;10.562;2024-02-26T09:40:16;95095.25;;;7.45;56.14
28000;BME280;15328;50.860;10.562;2024-02-26T09:45:21;95094.22;;;7.46;56.71
28000;BME280;15328;50.860;10.562;2024-02-26T09:50:22;95107.78;;;7.73;56.69
28000;BME280;15328;50.860;10.562;2024-02-26T09:55:23;95112.13;;;7.79;56.66
28000;BME280;15328;50.860;10.562;2024-02-26T10:00:25;95108.09;;;7.88;56.14
28000;BME280;15328;50.860;10.562;2024-02-26T10:05:29;95111.06;;;7.92;55.83
28000;BME280;15328;50.860;10.562;2024-02-26T10:10:30;95110.59;;;8.06;56.72
28000;BME280;15328;50.860;10.562;2024-02-26T10:15:31;95102.66;;;8.47;56.96
28000;BME280;15328;50.860;10.562;2024-02-26T10:20:32;95119.16;;;8.94;56.11
28000;BME280;15328;50.860;10.562;2024-02-26T10:25:33;95123.78;;;9.66;56.90
28000;BME280;15328;50.860;10.562;2024-02-26T10:30:36;95129.41;;;10.25;53.22
28000;BME280;15328;50.860;10.562;2024-02-26T10:35:36;95118.50;;;10.48;52.07
28000;BME280;15328;50.860;10.562;2024-02-26T10:40:40;95130.34;;;10.62;49.74
28000;BME280;15328;50.860;10.562;2024-02-26T10:45:40;95135.44;;;10.64;49.65
28000;BME280;15328;50.860;10.562;2024-02-26T10:50:43;95141.25;;;10.61;49.23
28000;BME280;15328;50.860;10.562;2024-02-26T10:55:48;95147.31;;;10.56;49.08
28000;BME280;15328;50.860;10.562;2024-02-26T11:00:50;95148.41;;;10.60;48.71
28000;BME280;15328;50.860;10.562;2024-02-26T11:05:51;95154.13;;;10.25;48.50
28000;BME280;15328;50.860;10.562;2024-02-26T11:10:55;95157.72;;;10.19;48.76
28000;BME280;15328;50.860;10.562;2024-02-26T11:15:55;95157.88;;;9.90;49.92
28000;BME280;15328;50.860;10.562;2024-02-26T11:20:58;95165.34;;;9.94;49.97
28000;BME280;15328;50.860;10.562;2024-02-26T11:26:00;95160.59;;;9.79;49.97
28000;BME280;15328;50.860;10.562;2024-02-26T11:31:02;95158.06;;;9.67;50.73
28000;BME280;15328;50.860;10.562;2024-02-26T11:36:11;95163.44;;;9.55;50.98
28000;BME280;15328;50.860;10.562;2024-02-26T11:41:12;95159.56;;;9.46;51.00
28000;BME280;15328;50.860;10.562;2024-02-26T11:46:32;95159.25;;;9.26;50.91
28000;BME280;15328;50.860;10.562;2024-02-26T11:51:34;95160.69;;;9.17;51.50
28000;BME280;15328;50.860;10.562;2024-02-26T11:56:35;95175.50;;;9.01;51.83
28000;BME280;15328;50.860;10.562;2024-02-26T12:01:45;95183.94;;;8.98;52.50
28000;BME280;15328;50.860;10.562;2024-02-26T12:07:06;95181.44;;;8.91;52.91
28000;BME280;15328;50.860;10.562;2024-02-26T12:12:08;95193.84;;;8.74;53.20
28000;BME280;15328;50.860;10.562;2024-02-26T12:17:19;95184.91;;;8.63;54.25
28000;BME280;15328;50.860;10.562;2024-02-26T12:22:20;95189.16;;;8.64;53.83
28000;BME280;15328;50.860;10.562;2024-02-26T12:27:20;95189.16;;;8.64;54.00
28000;BME280;15328;50.860;10.562;2024-02-26T12:32:21;95190.00;;;8.53;54.40
28000;BME280;15328;50.860;10.562;2024-02-26T12:37:22;95195.97;;;8.49;54.59
28000;BME280;15328;50.860;10.562;2024-02-26T12:42:22;95206.59;;;8.49;54.83
28000;BME280;15328;50.860;10.562;2024-02-26T12:47:23;95204.88;;;8.54;54.96
28000;BME280;15328;50.860;10.562;2024-02-26T12:52:23;95206.69;;;8.65;55.32
28000;BME280;15328;50.860;10.562;2024-02-26T12:57:24;95212.16;;;8.76;55.00
28000;BME280;15328;50.860;10.562;2024-02-26T13:02:25;95204.22;;;8.76;54.64
28000;BME280;15328;50.860;10.562;2024-02-26T13:07:26;95212.63;;;8.73;54.61
28000;BME280;15328;50.860;10.562;2024-02-26T13:12:26;95225.00;;;8.67;54.56
28000;BME280;15328;50.860;10.562;2024-02-26T13:17:27;95221.91;;;8.58;55.04
28000;BME280;15328;50.860;10.562;2024-02-26T13:22:28;95223.66;;;8.41;55.81
28000;BME280;15328;50.860;10.562;2024-02-26T13:27:30;95240.72;;;8.33;56.33
28000;BME280;15328;50.860;10.562;2024-02-26T13:32:35;95244.38;;;8.32;56.59
28000;BME280;15328;50.860;10.562;2024-02-26T13:37:37;95245.19;;;8.21;57.21
28000;BME280;15328;50.860;10.562;2024-02-26T13:42:38;95254.19;;;8.32;57.61
28000;BME280;15328;50.860;10.562;2024-02-26T13:47:39;95264.78;;;8.44;57.46
28000;BME280;15328;50.860;10.562;2024-02-26T13:52:40;95258.59;;;8.38;57.91
28000;BME280;15328;50.860;10.562;2024-02-26T13:57:40;95257.97;;;8.48;58.18
28000;BME280;15328;50.860;10.562;2024-02-26T14:02:41;95262.25;;;8.60;56.78
28000;BME280;15328;50.860;10.562;2024-02-26T14:07:41;95268.47;;;8.54;57.09
28000;BME280;15328;50.860;10.562;2024-02-26T14:12:42;95270.00;;;8.50;58.06
28000;BME280;15328;50.860;10.562;2024-02-26T14:17:42;95268.59;;;8.59;57.84
28000;BME280;15328;50.860;10.562;2024-02-26T14:22:43;95281.84;;;8.59;57.84
28000;BME280;15328;50.860;10.562;2024-02-26T14:27:43;95288.19;;;8.58;58.54
28000;BME280;15328;50.860;10.562;2024-02-26T14:32:44;95290.22;;;8.68;58.83
28000;BME280;15328;50.860;10.562;2024-02-26T14:37:45;95287.00;;;8.78;58.25
28000;BME280;15328;50.860;10.562;2024-02-26T14:42:49;95297.81;;;8.88;57.95
28000;BME280;15328;50.860;10.562;2024-02-26T14:47:49;95305.34;;;8.79;57.55
28000;BME280;15328;50.860;10.562;2024-02-26T14:52:49;95314.78;;;8.63;56.97
28000;BME280;15328;50.860;10.562;2024-02-26T14:57:50;95325.66;;;8.50;57.67
28000;BME280;15328;50.860;10.562;2024-02-26T15:02:51;95334.41;;;8.39;58.09
28000;BME280;15328;50.860;10.562;2024-02-26T15:07:52;95341.84;;;8.30;58.05
28000;BME280;15328;50.860;10.562;2024-02-26T15:12:52;95336.31;;;8.20;58.67
28000;BME280;15328;50.860;10.562;2024-02-26T15:17:55;95343.09;;;8.16;59.26
28000;BME280;15328;50.860;10.562;2024-02-26T15:22:55;95344.81;;;8.11;59.37
28000;BME280;15328;50.860;10.562;2024-02-26T15:27:55;95355.53;;;8.04;59.50
28000;BME280;15328;50.860;10.562;2024-02-26T15:32:56;95365.66;;;8.07;60.08
28000;BME280;15328;50.860;10.562;2024-02-26T15:37:56;95365.53;;;8.02;60.22
28000;BME280;15328;50.860;10.562;2024-02-26T15:42:58;95368.66;;;8.11;60.45
28000;BME280;15328;50.860;10.562;2024-02-26T15:47:58;95371.53;;;8.21;59.86
28000;BME280;15328;50.860;10.562;2024-02-26T15:52:58;95377.41;;;8.11;60.00
28000;BME280;15328;50.860;10.562;2024-02-26T15:57:59;95385.66;;;7.91;60.42
28000;BME280;15328;50.860;10.562;2024-02-26T16:02:59;95385.28;;;7.88;60.57
28000;BME280;15328;50.860;10.562;2024-02-26T16:08:05;95398.75;;;7.86;60.88
28000;BME280;15328;50.860;10.562;2024-02-26T16:13:06;95398.88;;;7.91;60.82
28000;BME280;15328;50.860;10.562;2024-02-26T16:18:08;95411.91;;;7.93;61.33
28000;BME280;15328;50.860;10.562;2024-02-26T16:23:08;95420.47;;;7.95;61.23
28000;BME280;15328;50.860;10.562;2024-02-26T16:28:09;95428.66;;;8.05;61.21
28000;BME280;15328;50.860;10.562;2024-02-26T16:33:09;95434.19;;;8.15;60.83
28000;BME280;15328;50.860;10.562;2024-02-26T16:38:10;95434.94;;;8.22;60.71
28000;BME280;15328;50.860;10.562;2024-02-26T16:43:10;95440.88;;;8.18;61.00
28000;BME280;15328;50.860;10.562;2024-02-26T16:48:10;95446.75;;;8.20;60.68
28000;BME280;15328;50.860;10.562;2024-02-26T16:53:11;95454.72;;;8.20;61.13
28000;BME280;15328;50.860;10.562;2024-02-26T16:58:11;95458.84;;;8.16;61.09
28000;BME280;15328;50.860;10.562;2024-02-26T17:03:11;95474.97;;;8.14;61.00
28000;BME280;15328;50.860;10.562;2024-02-26T17:08:11;95480.03;;;8.16;60.87
28000;BME280;15328;50.860;10.562;2024-02-26T17:13:12;95490.63;;;8.16;61.01
28000;BME280;15328;50.860;10.562;2024-02-26T17:18:13;95506.31;;;8.17;61.35
28000;BME280;15328;50.860;10.562;2024-02-26T17:23:16;95507.69;;;8.20;61.19
28000;BME280;15328;50.860;10.562;2024-02-26T17:28:17;95514.63;;;8.21;61.27
28000;BME280;15328;50.860;10.562;2024-02-26T17:33:18;95525.81;;;8.23;61.50
28000;BME280;15328;50.860;10.562;2024-02-26T17:38:18;95536.41;;;8.23;61.60
28000;BME280;15328;50.860;10.562;2024-02-26T17:43:19;95541.72;;;8.23;61.48
28000;BME280;15328;50.860;10.562;2024-02-26T17:48:19;95542.06;;;8.26;61.33
28000;BME280;15328;50.860;10.562;2024-02-26T17:53:20;95543.69;;;8.27;61.66
28000;BME280;15328;50.860;10.562;2024-02-26T17:58:22;95557.88;;;8.33;61.75
28000;BME280;15328;50.860;10.562;2024-02-26T18:03:22;95562.38;;;8.32;61.72
28000;BME280;15328;50.860;10.562;2024-02-26T18:08:23;95562.75;;;8.36;61.29
28000;BME280;15328;50.860;10.562;2024-02-26T18:13:23;95575.84;;;8.31;61.71
28000;BME280;15328;50.860;10.562;2024-02-26T18:18:27;95586.22;;;8.32;62.10
28000;BME280;15328;50.860;10.562;2024-02-26T18:23:29;95596.41;;;8.35;61.82
28000;BME280;15328;50.860;10.562;2024-02-26T18:28:30;95603.91;;;8.39;61.76
28000;BME280;15328;50.860;10.562;2024-02-26T18:33:30;95605.88;;;8.43;61.46
28000;BME280;15328;50.860;10.562;2024-02-26T18:38:31;95610.59;;;8.41;61.65
28000;BME280;15328;50.860;10.562;2024-02-26T18:43:31;95608.38;;;8.38;62.11
28000;BME280;15328;50.860;10.562;2024-02-26T18:48:32;95618.19;;;8.38;61.93
28000;BME280;15328;50.860;10.562;2024-02-26T18:53:32;95627.28;;;8.42;61.76
28000;BME280;15328;50.860;10.562;2024-02-26T18:58:33;95634.22;;;8.43;62.23
28000;BME280;15328;50.860;10.562;2024-02-26T19:03:33;95633.28;;;8.37;62.53
28000;BME280;15328;50.860;10.562;2024-02-26T19:08:34;95626.13;;;8.38;62.21
28000;BME280;15328;50.860;10.562;2024-02-26T19:13:36;95646.16;;;8.33;62.35
28000;BME280;15328;50.860;10.562;2024-02-26T19:18:39;95651.88;;;8.30;63.03
28000;BME280;15328;50.860;10.562;2024-02-26T19:23:40;95660.22;;;8.34;62.54
28000;BME280;15328;50.860;10.562;2024-02-26T19:28:40;95662.88;;;8.34;62.84
28000;BME280;15328;50.860;10.562;2024-02-26T19:33:44;95665.53;;;8.34;63.06
28000;BME280;15328;50.860;10.562;2024-02-26T19:38:47;95681.84;;;8.31;62.87
28000;BME280;15328;50.860;10.562;2024-02-26T19:43:47;95688.16;;;8.30;62.85
28000;BME280;15328;50.860;10.562;2024-02-26T19:48:47;95693.09;;;8.26;62.34
28000;BME280;15328;50.860;10.562;2024-02-26T19:53:49;95696.63;;;8.20;62.50
28000;BME280;15328;50.860;10.562;2024-02-26T19:58:50;95705.66;;;8.13;62.91
28000;BME280;15328;50.860;10.562;2024-02-26T20:03:50;95712.22;;;8.10;62.96
28000;BME280;15328;50.860;10.562;2024-02-26T20:08:50;95718.78;;;8.07;63.04
28000;BME280;15328;50.860;10.562;2024-02-26T20:13:51;95728.34;;;8.09;63.21
28000;BME280;15328;50.860;10.562;2024-02-26T20:18:51;95740.19;;;8.06;63.17
28000;BME280;15328;50.860;10.562;2024-02-26T20:23:51;95741.00;;;8.06;63.52
28000;BME280;15328;50.860;10.562;2024-02-26T20:28:52;95746.66;;;8.10;63.26
28000;BME280;15328;50.860;10.562;2024-02-26T20:33:52;95751.50;;;8.13;62.85
28000;BME280;15328;50.860;10.562;2024-02-26T20:38:52;95760.72;;;8.11;63.42
28000;BME280;15328;50.860;10.562;2024-02-26T20:43:53;95771.69;;;8.14;63.08
28000;BME280;15328;50.860;10.562;2024-02-26T20:48:54;95781.31;;;8.09;63.46
28000;BME280;15328;50.860;10.562;2024-02-26T20:53:54;95795.06;;;7.99;63.35
28000;BME280;15328;50.860;10.562;2024-02-26T20:58:56;95793.47;;;7.91;63.29
28000;BME280;15328;50.860;10.562;2024-02-26T21:03:56;95793.75;;;7.83;63.40
28000;BME280;15328;50.860;10.562;2024-02-26T21:08:57;95801.16;;;7.74;64.34
28000;BME280;15328;50.860;10.562;2024-02-26T21:13:57;95804.22;;;7.71;64.24
28000;BME280;15328;50.860;10.562;2024-02-26T21:18:57;95803.44;;;7.71;64.51
28000;BME280;15328;50.860;10.562;2024-02-26T21:23:59;95810.78;;;7.69;64.40
28000;BME280;15328;50.860;10.562;2024-02-26T21:29:00;95810.13;;;7.73;64.35
28000;BME280;15328;50.860;10.562;2024-02-26T21:34:00;95818.72;;;7.69;64.84
28000;BME280;15328;50.860;10.562;2024-02-26T21:39:00;95830.34;;;7.68;64.54
28000;BME280;15328;50.860;10.562;2024-02-26T21:44:01;95836.66;;;7.60;64.60
28000;BME280;15328;50.860;10.562;2024-02-26T21:49:06;95844.81;;;7.59;64.95
28000;BME280;15328;50.860;10.562;2024-02-26T21:54:07;95846.84;;;7.63;64.72
28000;BME280;15328;50.860;10.562;2024-02-26T21:59:08;95848.88;;;7.61;65.01
28000;BME280;15328;50.860;10.562;2024-02-26T22:04:09;95846.22;;;7.68;64.27
28000;BME280;15328;50.860;10.562;2024-02-26T22:09:10;95862.75;;;7.57;64.49
28000;BME280;15328;50.860;10.562;2024-02-26T22:14:11;95863.19;;;7.54;64.71
28000;BME280;15328;50.860;10.562;2024-02-26T22:19:11;95865.06;;;7.47;64.85
28000;BME280;15328;50.860;10.562;2024-02-26T22:24:16;95862.00;;;7.50;65.23
28000;BME280;15328;50.860;10.562;2024-02-26T22:29:16;95870.34;;;7.47;65.14
28000;BME280;15328;50.860;10.562;2024-02-26T22:34:17;95877.88;;;7.50;65.28
28000;BME280;15328;50.860;10.562;2024-02-26T22:39:17;95874.00;;;7.52;65.15
28000;BME280;15328;50.860;10.562;2024-02-26T22:44:18;95889.88;;;7.52;64.98
28000;BME280;15328;50.860;10.562;2024-02-26T22:49:19;95885.59;;;7.51;65.35
28000;BME280;15328;50.860;10.562;2024-02-26T22:54:19;95891.44;;;7.60;64.41
28000;BME280;15328;50.860;10.562;2024-02-26T22:59:19;95895.81;;;7.48;65.01
28000;BME280;15328;50.860;10.562;2024-02-26T23:04:20;95907.78;;;7.50;64.94
28000;BME280;15328;50.860;10.562;2024-02-26T23:09:22;95908.56;;;7.57;64.91
28000;BME280;15328;50.860;10.562;2024-02-26T23:14:23;95913.22;;;7.62;64.75
28000;BME280;15328;50.860;10.562;2024-02-26T23:19:23;95919.53;;;7.61;65.09
28000;BME280;15328;50.860;10.562;2024-02-26T23:24:23;95928.09;;;7.63;64.82
28000;BME280;15328;50.860;10.562;2024-02-26T23:29:24;95940.91;;;7.66;64.86
28000;BME280;15328;50.860;10.562;2024-02-26T23:34:24;95942.13;;;7.63;64.94
28000;BME280;15328;50.860;10.562;2024-02-26T23:39:26;95939.09;;;7.60;64.60
28000;BME280;15328;50.860;10.562;2024-02-26T23:44:26;95948.06;;;7.59;64.68
28000;BME280;15328;50.860;10.562;2024-02-26T23:49:27;95945.59;;;7.64;64.29
28000;BME280;15328;50.860;10.562;2024-02-26T23:54:27;95949.91;;;7.58;64.78
28000;BME280;15328;50.860;10.562;2024-02-26T23:59:27;95957.03;;;7.58;64.30
